Terminal Aerodrome Forecast
Issued by NWS

Home | Current Version | Previous Version | Text Only | Print | Product List | Glossary On
Versions: 1 2 3 4 5 6 7 8 9 10 11 12 13 14 15 16
000
FTUS46 KSEW 251700 RRA
TAFCLM
TAF
KCLM 251735Z 2518/2618 VRB05KT P6SM OVC010
      TEMPO 2518/2522 -RA
     FM260100 27018G27KT P6SM -RA OVC010
      TEMPO 2602/2606 27025G35KT 4SM -RA BR OVC010
     FM261500 27010KT P6SM -SHRA BKN015=

USA.gov is the U.S. government's official web portal to all federal, state and local government web resources and services.